createdAt,value
2019-04-06T00:02:00.176Z,43.30
2019-04-06T00:04:56.628Z,43.50
2019-04-06T00:07:51.944Z,43.50
2019-04-06T00:10:47.447Z,43.50
2019-04-06T00:13:43.324Z,43.60
2019-04-06T00:16:39.228Z,43.60
2019-04-06T00:19:35.078Z,43.70
2019-04-06T00:22:30.928Z,43.60
2019-04-06T00:25:26.516Z,43.60
2019-04-06T00:28:22.225Z,43.70
2019-04-06T00:31:37.285Z,43.70
2019-04-06T00:34:31.008Z,43.80
2019-04-06T00:37:27.103Z,43.70
2019-04-06T00:40:23.165Z,43.70
2019-04-06T00:43:18.789Z,43.60
2019-04-06T00:46:18.745Z,43.60
2019-04-06T00:49:14.366Z,43.50
2019-04-06T00:52:09.804Z,43.50
2019-04-06T00:55:05.219Z,43.60
2019-04-06T00:58:00.854Z,43.40
2019-04-06T01:00:56.753Z,43.40
2019-04-06T01:03:51.996Z,43.40
2019-04-06T01:06:47.634Z,44.00
2019-04-06T01:09:42.979Z,43.40
2019-04-06T01:12:38.407Z,43.50
2019-04-06T01:15:33.876Z,43.50
2019-04-06T01:18:29.860Z,43.40
2019-04-06T01:21:25.290Z,43.50
2019-04-06T01:24:20.535Z,43.40
2019-04-06T01:27:16.721Z,43.40
2019-04-06T01:30:13.126Z,43.40
2019-04-06T01:33:08.424Z,43.10
2019-04-06T01:36:04.071Z,43.10
2019-04-06T01:39:00.485Z,43.20
2019-04-06T01:41:56.648Z,43.10
2019-04-06T01:44:52.195Z,43.20
2019-04-06T01:47:47.730Z,43.10
2019-04-06T01:50:42.929Z,43.00
2019-04-06T01:53:38.491Z,43.00
2019-04-06T01:56:33.876Z,43.20
2019-04-06T01:59:29.107Z,43.20
2019-04-06T02:02:33.403Z,43.30
2019-04-06T02:05:28.806Z,43.10
2019-04-06T02:08:24.831Z,43.10
2019-04-06T02:11:20.106Z,43.00
2019-04-06T02:14:15.667Z,43.10
2019-04-06T02:17:10.965Z,43.20
2019-04-06T02:20:07.324Z,43.20
2019-04-06T02:23:03.774Z,43.00
2019-04-06T02:25:59.946Z,42.90
2019-04-06T02:28:55.875Z,42.90
2019-04-06T02:32:09.243Z,42.90
2019-04-06T02:35:18.174Z,42.80
2019-04-06T02:38:23.649Z,42.70
2019-04-06T02:41:56.654Z,42.90
2019-04-06T02:44:52.785Z,42.90
2019-04-06T02:47:53.344Z,43.00
2019-04-06T02:50:49.162Z,43.20
2019-04-06T02:53:44.269Z,43.30
2019-04-06T02:56:46.148Z,43.30
2019-04-06T02:59:35.765Z,43.10
2019-04-06T03:20:12.832Z,41.80
2019-04-06T03:23:08.082Z,38.90
2019-04-06T03:26:04.056Z,38.80
2019-04-06T03:28:59.804Z,38.60
2019-04-06T03:31:55.859Z,38.50
2019-04-06T03:34:52.240Z,38.40
2019-04-06T03:37:47.345Z,38.20
2019-04-06T03:40:43.342Z,38.00
2019-04-06T03:43:39.324Z,37.90
2019-04-06T03:46:35.145Z,37.80
2019-04-06T03:49:30.591Z,37.60
2019-04-06T03:52:25.670Z,37.30
2019-04-06T03:55:20.960Z,37.20
2019-04-06T03:58:16.274Z,37.10
2019-04-06T04:01:12.069Z,37.10
2019-04-06T04:04:07.694Z,37.20
2019-04-06T04:07:03.138Z,37.10
2019-04-06T04:09:59.291Z,37.10
2019-04-06T04:12:54.717Z,37.20
2019-04-06T04:15:49.987Z,37.20
2019-04-06T04:18:45.036Z,36.80
2019-04-06T04:21:40.578Z,36.40
2019-04-06T04:24:36.721Z,35.90
2019-04-06T04:27:32.163Z,35.50
2019-04-06T04:30:32.908Z,35.30
2019-04-06T04:33:23.673Z,35.00
2019-04-06T04:36:19.206Z,34.90
2019-04-06T04:39:14.803Z,34.60
2019-04-06T04:42:10.649Z,34.70
2019-04-06T04:45:05.877Z,34.80
2019-04-06T04:48:01.692Z,34.60
2019-04-06T04:50:56.909Z,34.70
2019-04-06T04:53:53.109Z,35.00
2019-04-06T04:56:48.445Z,35.10
2019-04-06T04:59:45.510Z,34.80
2019-04-06T05:02:41.429Z,34.80
2019-04-06T05:05:37.439Z,34.80
2019-04-06T05:08:33.024Z,34.50
2019-04-06T05:11:30.037Z,34.40
2019-04-06T05:15:04.591Z,34.20
2019-04-06T05:18:02.946Z,34.20
2019-04-06T05:21:04.303Z,34.00
2019-04-06T05:24:01.050Z,34.20
2019-04-06T05:31:36.544Z,34.40
2019-04-06T05:34:50.976Z,34.30
2019-04-06T05:37:49.530Z,34.10
2019-04-06T05:41:10.172Z,34.00
2019-04-06T05:44:36.982Z,34.00
2019-04-06T05:47:34.725Z,34.00
2019-04-06T05:50:34.322Z,33.90
2019-04-06T05:53:36.065Z,33.60
2019-04-06T05:56:31.726Z,33.30
2019-04-06T05:59:28.002Z,33.30
2019-04-06T06:02:24.047Z,33.00
2019-04-06T06:05:19.802Z,32.40
2019-04-06T06:08:15.832Z,31.80
2019-04-06T06:11:11.394Z,31.40
2019-04-06T06:14:09.518Z,31.10
2019-04-06T06:17:07.564Z,30.90
2019-04-06T06:20:05.339Z,30.80
2019-04-06T06:23:01.213Z,30.50
2019-04-06T06:26:23.727Z,30.10
2019-04-06T06:29:20.444Z,30.00
2019-04-06T06:32:17.684Z,30.00
2019-04-06T06:35:18.658Z,29.50
2019-04-06T06:38:14.607Z,29.30
2019-04-06T06:41:10.012Z,29.30
2019-04-06T06:44:07.260Z,29.10
2019-04-06T06:47:03.216Z,29.20
2019-04-06T06:49:58.868Z,29.40
2019-04-06T06:52:54.222Z,29.50
2019-04-06T06:55:50.364Z,29.40
2019-04-06T06:58:45.670Z,29.10
2019-04-06T07:01:48.259Z,28.40
2019-04-06T07:04:44.419Z,28.10
2019-04-06T07:07:39.828Z,27.90
2019-04-06T07:10:34.694Z,27.80
2019-04-06T07:13:30.597Z,27.40
2019-04-06T07:16:31.698Z,27.00
2019-04-06T07:19:27.617Z,27.10
2019-04-06T07:22:26.207Z,26.80
2019-04-06T07:25:21.640Z,26.90
2019-04-06T07:28:17.923Z,26.80
2019-04-06T07:31:19.827Z,26.80
2019-04-06T07:34:14.243Z,26.80
2019-04-06T07:37:14.192Z,26.50
2019-04-06T07:40:14.395Z,26.40
2019-04-06T07:43:11.258Z,26.20
2019-04-06T07:46:07.177Z,26.00
2019-04-06T07:49:08.433Z,25.60
2019-04-06T07:51:58.870Z,25.60
2019-04-06T07:55:02.267Z,25.80
2019-04-06T07:57:53.194Z,25.50
2019-04-06T08:00:49.704Z,25.30
2019-04-06T08:03:44.900Z,25.30
2019-04-06T08:06:40.657Z,25.20
2019-04-06T08:09:37.210Z,25.00
2019-04-06T08:12:33.503Z,25.20
2019-04-06T08:15:32.207Z,24.40
2019-04-06T08:18:28.062Z,24.30
2019-04-06T08:21:23.933Z,23.80
2019-04-06T08:24:19.436Z,23.70
2019-04-06T08:27:15.238Z,23.70
2019-04-06T08:30:12.698Z,23.50
2019-04-06T08:33:08.855Z,23.50
2019-04-06T08:36:04.800Z,23.50
2019-04-06T08:39:00.890Z,23.50
2019-04-06T08:41:56.837Z,22.80
2019-04-06T08:44:55.661Z,22.40
2019-04-06T08:47:50.960Z,22.10
2019-04-06T08:50:46.795Z,22.10
2019-04-06T08:53:42.046Z,22.20
2019-04-06T08:56:45.764Z,22.20
2019-04-06T08:59:41.918Z,22.00
2019-04-06T09:02:37.420Z,21.70
2019-04-06T09:05:44.880Z,21.40
2019-04-06T09:08:43.722Z,21.00
2019-04-06T09:11:42.428Z,21.00
2019-04-06T09:14:38.850Z,20.90
2019-04-06T09:17:35.170Z,21.30
2019-04-06T09:20:31.746Z,21.10
2019-04-06T09:23:31.633Z,21.10
2019-04-06T09:26:27.633Z,21.10
2019-04-06T09:29:24.667Z,21.00
2019-04-06T09:32:23.775Z,20.90
2019-04-06T09:35:21.079Z,20.80
2019-04-06T09:38:23.155Z,20.80
2019-04-06T09:41:18.699Z,20.50
2019-04-06T09:44:23.399Z,20.70
2019-04-06T09:47:35.055Z,20.80
2019-04-06T09:54:30.132Z,20.50
2019-04-06T09:57:42.684Z,20.00
2019-04-06T10:00:51.620Z,20.00
2019-04-06T10:04:04.363Z,19.80
2019-04-06T10:07:24.107Z,19.60
2019-04-06T10:10:41.941Z,19.30
2019-04-06T10:13:50.605Z,19.50
2019-04-06T10:17:11.283Z,19.50
2019-04-06T10:20:25.214Z,19.60
2019-04-06T10:23:42.802Z,19.70
2019-04-06T10:27:00.105Z,19.30
2019-04-06T10:30:25.024Z,19.30
2019-04-06T10:34:24.146Z,19.50
2019-04-06T10:37:49.551Z,19.90
2019-04-06T10:41:02.826Z,20.40
2019-04-06T10:44:17.156Z,21.00
2019-04-06T10:47:27.931Z,21.40
2019-04-06T10:50:50.929Z,21.80
2019-04-06T10:54:15.459Z,22.20
2019-04-06T10:57:19.949Z,22.50
2019-04-06T11:00:25.509Z,22.80
2019-04-06T11:07:38.452Z,23.30
2019-04-06T11:10:53.987Z,23.40
2019-04-06T11:14:10.742Z,23.60
2019-04-06T11:17:47.733Z,24.20
2019-04-06T11:21:05.797Z,24.70
2019-04-06T11:24:14.800Z,25.10
2019-04-06T11:46:17.346Z,22.40
2019-04-06T11:49:26.623Z,23.10
2019-04-06T11:52:38.646Z,23.10
2019-04-06T11:55:53.910Z,23.00
2019-04-06T11:59:07.989Z,23.00
2019-04-06T12:02:22.782Z,22.60
2019-04-06T12:15:17.735Z,21.60
2019-04-06T12:18:36.132Z,21.40
2019-04-06T12:21:50.496Z,21.40
2019-04-06T12:28:37.525Z,21.40
2019-04-06T12:32:05.707Z,21.20
2019-04-06T12:35:09.730Z,21.30
2019-04-06T12:38:28.125Z,21.60
2019-04-06T12:45:05.135Z,21.70
2019-04-06T12:48:19.002Z,22.00
2019-04-06T12:51:31.875Z,22.40
2019-04-06T12:54:47.613Z,22.60
2019-04-06T12:58:03.023Z,22.70
2019-04-06T13:01:17.703Z,22.80
2019-04-06T13:04:33.654Z,22.80
2019-04-06T13:07:53.835Z,23.00
2019-04-06T13:11:16.106Z,23.20
2019-04-06T13:14:28.308Z,23.20
2019-04-06T13:17:37.421Z,23.50
2019-04-06T13:20:57.130Z,23.60
2019-04-06T13:24:29.328Z,23.80
2019-04-06T13:27:43.389Z,24.20
2019-04-06T13:31:04.189Z,24.20
2019-04-06T13:34:30.264Z,24.30
2019-04-06T13:37:37.814Z,24.40
2019-04-06T13:40:48.226Z,24.40
2019-04-06T13:44:04.854Z,24.60
2019-04-06T13:47:24.932Z,24.70
2019-04-06T13:50:37.539Z,24.80
2019-04-06T13:53:49.167Z,25.00
2019-04-06T13:56:57.980Z,25.00
2019-04-06T14:00:11.032Z,25.00
2019-04-06T14:03:22.987Z,24.70
2019-04-06T14:06:28.320Z,24.70
2019-04-06T14:09:50.935Z,24.60
2019-04-06T14:13:13.537Z,24.30
2019-04-06T14:16:18.440Z,24.40
2019-04-06T14:19:40.986Z,24.30
2019-04-06T14:22:57.232Z,24.40
2019-04-06T14:26:08.899Z,24.50
2019-04-06T14:29:13.790Z,24.50
2019-04-06T14:32:35.851Z,24.50
2019-04-06T14:35:45.508Z,24.80
2019-04-06T14:39:02.108Z,24.90
2019-04-06T14:42:15.955Z,25.10
2019-04-06T14:45:35.726Z,25.40
2019-04-06T14:48:55.516Z,25.60
2019-04-06T14:52:13.266Z,25.90
2019-04-06T14:55:14.339Z,26.10
2019-04-06T14:58:32.938Z,26.40
2019-04-06T15:01:57.871Z,26.70
2019-04-06T15:04:58.102Z,26.90
2019-04-06T15:08:15.134Z,27.00
2019-04-06T15:11:21.820Z,27.00
2019-04-06T15:14:29.635Z,27.00
2019-04-06T15:17:44.627Z,27.10
2019-04-06T15:21:07.540Z,27.10
2019-04-06T15:24:21.212Z,27.10
2019-04-06T15:27:36.507Z,27.10
2019-04-06T15:34:07.186Z,27.30
2019-04-06T15:37:27.853Z,27.40
2019-04-06T15:40:48.812Z,27.50
2019-04-06T15:44:12.335Z,27.60
2019-04-06T15:47:26.331Z,27.70
2019-04-06T15:50:43.428Z,27.90
2019-04-06T15:54:03.667Z,28.20
2019-04-06T15:57:20.175Z,28.30
2019-04-06T16:00:20.399Z,28.50
2019-04-06T16:03:32.065Z,28.70
2019-04-06T16:06:38.984Z,29.00
2019-04-06T16:09:59.284Z,29.20
2019-04-06T16:13:01.933Z,29.30
2019-04-06T16:16:15.462Z,29.60
2019-04-06T16:19:47.315Z,29.70
2019-04-06T16:23:02.543Z,29.90
2019-04-06T16:26:21.662Z,30.00
2019-04-06T16:29:26.941Z,30.40
2019-04-06T16:32:39.899Z,30.70
2019-04-06T16:35:52.672Z,30.90
2019-04-06T16:39:09.034Z,31.00
2019-04-06T16:42:34.622Z,31.20
2019-04-06T16:45:49.665Z,31.20
2019-04-06T16:49:03.221Z,31.10
2019-04-06T16:52:28.944Z,31.00
2019-04-06T16:55:58.591Z,30.90
2019-04-06T16:59:16.893Z,30.70
2019-04-06T17:02:29.787Z,30.70
2019-04-06T17:05:42.774Z,30.80
2019-04-06T17:09:01.180Z,30.90
2019-04-06T17:12:20.014Z,31.00
2019-04-06T17:15:49.441Z,31.20
2019-04-06T17:19:06.391Z,31.30
2019-04-06T17:22:29.457Z,31.00
2019-04-06T17:25:46.897Z,30.90
2019-04-06T17:29:03.379Z,30.50
2019-04-06T17:32:36.943Z,30.40
2019-04-06T17:35:45.227Z,30.40
2019-04-06T17:39:05.195Z,30.30
2019-04-06T17:42:27.740Z,30.30
2019-04-06T17:45:53.990Z,30.10
2019-04-06T17:49:16.950Z,30.20
2019-04-06T17:52:42.951Z,30.20
2019-04-06T17:56:09.298Z,30.00
2019-04-06T17:59:28.662Z,30.00
2019-04-06T18:02:48.683Z,29.90
2019-04-06T18:06:07.797Z,29.70
2019-04-06T18:09:18.809Z,29.80
2019-04-06T18:12:22.036Z,29.90
2019-04-06T18:15:18.791Z,30.00
2019-04-06T18:18:15.599Z,30.00
2019-04-06T18:21:12.527Z,30.10
2019-04-06T18:24:08.187Z,30.20
2019-04-06T18:27:04.996Z,30.30
2019-04-06T18:30:01.428Z,30.00
2019-04-06T18:33:03.659Z,30.00
2019-04-06T18:36:00.602Z,30.00
2019-04-06T18:39:03.030Z,30.00
2019-04-06T18:41:59.933Z,30.10
2019-04-06T18:44:55.375Z,30.60
2019-04-06T18:47:50.791Z,30.80
2019-04-06T18:50:46.482Z,30.90
2019-04-06T18:53:42.587Z,31.00
2019-04-06T18:56:37.708Z,30.90
2019-04-06T18:59:33.726Z,30.80
2019-04-06T19:02:29.415Z,31.00
2019-04-06T19:05:25.446Z,30.90
2019-04-06T19:08:23.272Z,31.00
2019-04-06T19:11:17.374Z,31.10
2019-04-06T19:14:13.332Z,31.30
2019-04-06T19:17:09.121Z,31.50
2019-04-06T19:20:04.652Z,31.70
2019-04-06T19:23:00.525Z,31.80
2019-04-06T19:25:56.000Z,32.00
2019-04-06T19:28:52.029Z,32.20
2019-04-06T19:31:47.865Z,32.30
2019-04-06T19:34:43.794Z,32.40
2019-04-06T19:37:39.760Z,32.60
2019-04-06T19:40:35.364Z,32.80
2019-04-06T19:43:31.994Z,32.80
2019-04-06T19:46:27.602Z,32.80
2019-04-06T19:49:24.083Z,33.00
2019-04-06T19:52:20.290Z,33.10
2019-04-06T19:55:15.921Z,33.30
2019-04-06T19:58:11.535Z,33.30
2019-04-06T20:01:06.981Z,33.40
2019-04-06T20:04:03.587Z,33.40
2019-04-06T20:06:59.115Z,33.50
2019-04-06T20:10:02.637Z,33.70
2019-04-06T20:12:58.573Z,33.70
2019-04-06T20:15:54.329Z,33.80
2019-04-06T20:18:49.923Z,34.00
2019-04-06T20:21:46.397Z,34.10
2019-04-06T20:24:42.160Z,34.00
2019-04-06T20:27:37.670Z,34.30
2019-04-06T20:30:32.979Z,34.20
2019-04-06T20:33:29.555Z,34.30
2019-04-06T20:36:26.224Z,34.40
2019-04-06T20:39:22.378Z,34.50
2019-04-06T20:42:18.374Z,34.60
2019-04-06T20:45:14.614Z,34.80
2019-04-06T20:48:11.203Z,34.90
2019-04-06T20:51:07.260Z,35.00
2019-04-06T20:54:03.609Z,35.20
2019-04-06T20:56:59.347Z,35.30
2019-04-06T20:59:55.088Z,35.50
2019-04-06T21:02:51.226Z,35.70
2019-04-06T21:05:47.645Z,35.80
2019-04-06T21:08:43.566Z,35.90
2019-04-06T21:11:39.412Z,36.10
2019-04-06T21:14:36.207Z,36.30
2019-04-06T21:17:33.048Z,36.50
2019-04-06T21:20:28.967Z,36.70
2019-04-06T21:23:24.592Z,36.80
2019-04-06T21:26:20.779Z,37.10
2019-04-06T21:29:16.795Z,37.20
2019-04-06T21:32:12.836Z,37.60
2019-04-06T21:35:09.466Z,37.70
2019-04-06T21:38:05.535Z,37.80
2019-04-06T21:41:01.902Z,38.00
2019-04-06T21:43:57.447Z,38.10
2019-04-06T21:46:53.712Z,38.30
2019-04-06T21:49:49.209Z,38.50
2019-04-06T21:52:45.226Z,38.70
2019-04-06T21:55:40.841Z,38.90
2019-04-06T21:58:36.606Z,39.10
2019-04-06T22:01:33.079Z,39.40
2019-04-06T22:04:28.454Z,39.60
2019-04-06T22:07:24.433Z,39.80
2019-04-06T22:10:20.877Z,39.90
2019-04-06T22:13:16.726Z,40.00
2019-04-06T22:16:12.223Z,40.20
2019-04-06T22:19:07.939Z,40.50
2019-04-06T22:22:04.066Z,40.50
2019-04-06T22:24:59.587Z,40.70
2019-04-06T22:27:55.773Z,40.90
2019-04-06T22:30:51.478Z,41.10
2019-04-06T22:33:47.553Z,41.10
2019-04-06T22:36:43.566Z,41.30
2019-04-06T22:39:39.504Z,41.40
2019-04-06T22:42:35.287Z,41.40
2019-04-06T22:45:32.048Z,41.50
2019-04-06T22:48:28.096Z,41.00
2019-04-06T22:51:24.643Z,42.70
2019-04-06T22:54:20.854Z,42.30
2019-04-06T22:57:16.182Z,42.10
2019-04-06T23:00:13.386Z,41.70
2019-04-06T23:03:37.278Z,41.30
2019-04-06T23:06:40.403Z,40.80
2019-04-06T23:09:36.196Z,40.20
2019-04-06T23:12:32.960Z,39.70
2019-04-06T23:15:28.895Z,39.40
2019-04-06T23:18:25.688Z,39.20
2019-04-06T23:21:21.447Z,39.00
2019-04-06T23:24:17.269Z,39.00
2019-04-06T23:27:13.659Z,38.90
2019-04-06T23:30:10.456Z,38.80
2019-04-06T23:33:06.590Z,38.80
2019-04-06T23:36:02.368Z,38.80
2019-04-06T23:38:58.002Z,38.70
2019-04-06T23:41:54.128Z,38.70
2019-04-06T23:44:49.958Z,38.70
2019-04-06T23:47:45.792Z,38.70
2019-04-06T23:50:41.287Z,38.80
2019-04-06T23:53:37.163Z,38.80
2019-04-06T23:56:33.418Z,38.80
2019-04-06T23:59:29.553Z,39.00
